Date,TemperatureHighF,TemperatureAvgF,TemperatureLowF,DewpointHighF,DewpointAvgF,DewpointLowF,HumidityHigh,HumidityAvg,HumidityLow,PressureMaxIn,PressureMinIn,WindSpeedMaxMPH,WindSpeedAvgMPH,GustSpeedMaxMPH,PrecipitationSumIn
2013-3-1,65,56,50,52,48,44,86,77,62,30.48,30.34,9,2,114,0.00
2013-3-2,176,50,43,100,45,35,86,78,71,30.34,30.20,8,1,114,0.02
2013-3-3,50,41,32,100,33,28,87,67,48,30.33,30.23,16,2,114,0.02
2013-3-4,54,42,28,39,32,24,87,71,52,30.23,29.92,9,0,9,0.00
2013-3-5,52,43,34,44,38,29,88,83,72,29.92,29.63,10,1,12,0.29
2013-3-6,50,43,38,44,38,34,89,84,75,29.99,29.57,15,3,114,0.43
2013-3-7,55,44,29,42,34,26,90,72,45,30.06,29.99,8,0,15,0.02
2013-3-8,56,44,30,42,35,26,88,73,51,30.22,30.03,8,1,9,0.00
2013-3-9,59,44,28,42,34,24,88,70,48,30.51,30.22,7,0,14,0.02
2013-3-10,58,46,32,44,38,27,86,74,58,30.51,30.41,6,0,8,0.02
2013-3-11,62,53,46,50,45,41,84,76,64,30.44,30.26,4,0,8,0.00
2013-3-12,64,52,42,52,45,38,89,77,61,30.27,30.17,7,0,9,0.00
2013-3-13,67,56,45,51,46,40,86,70,54,30.25,30.10,2,0,8,0.00
2013-3-14,61,53,44,47,44,40,86,72,51,30.23,30.07,9,2,20,0.00
2013-3-15,68,57,47,52,47,41,85,70,50,30.25,30.18,8,0,9,0.00
2013-3-16,52,47,38,45,41,33,86,79,71,30.22,30.05,13,2,21,0.10
2013-3-17,53,43,34,39,34,29,87,71,52,30.33,30.18,10,1,18,0.04
2013-3-18,56,44,29,40,32,25,88,66,45,30.32,30.14,12,1,12,0.00
2013-3-19,52,44,36,43,37,29,87,77,66,30.15,29.69,0,0,7,0.45
2013-3-20,54,48,36,48,41,31,88,77,59,30.22,29.60,23,7,114,0.73
2013-3-21,51,41,35,40,33,29,86,74,56,30.35,30.21,10,2,14,0.06
2013-3-22,51,40,30,38,32,26,88,73,55,30.41,30.33,9,1,14,0.02
2013-3-23,52,42,31,38,31,25,85,67,49,30.41,30.27,7,0,10,0.00
2013-3-24,58,46,35,40,34,26,80,65,50,30.28,30.08,8,0,10,0.00
2013-3-25,59,49,38,41,37,32,79,64,49,30.09,29.93,8,0,10,0.00
2013-3-26,59,51,45,47,42,37,84,73,60,30.04,29.97,5,0,7,0.04
2013-3-27,66,52,40,50,44,35,88,75,54,30.02,29.92,9,0,18,0.14
2013-3-28,66,54,46,52,47,42,88,76,50,30.15,30.01,9,1,12,0.16
2013-3-29,68,57,48,53,48,44,87,73,55,30.21,30.13,8,0,8,0.02
2013-3-30,74,59,43,53,47,38,87,67,46,30.18,29.95,8,2,12,0.00
2013-3-31,75,61,45,55,49,40,87,66,47,30.05,29.94,10,2,12,0.00